ADDS METAR Data INFO
IDs: Format: Raw Decoded Include TAF

Data at: 0537 UTC 21 Apr 2018

KCKB 210453Z 02004KT 10SM CLR 05/M05 A3042 RMK AO2 SLP301 T00501050 401391028
KCKB 210353Z 00000KT 10SM CLR 05/M04 A3040 RMK AO2 SLP296 T00501039
KCKB 210253Z 00000KT 10SM CLR 07/M05 A3040 RMK AO2 SLP293 T00721050 50008
KCKB 210153Z 01003KT 10SM CLR 08/M05 A3040 RMK AO2 SLP294 T00831050
KCKB 210053Z 35006KT 10SM CLR 09/M06 A3039 RMK AO2 SLP292 T00941056
KCKB 202353Z 35006KT 10SM CLR 11/M06 A3037 RMK AO2 SLP287 T01111056 10139 20111 53004
KCKB 202253Z 32005KT 10SM CLR 13/M06 A3036 RMK AO2 SLP284 T01281056
KCKB 202153Z 34006KT 10SM CLR 13/M05 A3036 RMK AO2 SLP283 T01331050
KCKB 202053Z 34009KT 290V010 10SM CLR 14/M05 A3036 RMK AO2 SLP281 T01391050 58009
KCKB 201953Z 33012G17KT 10SM CLR 13/M05 A3037 RMK AO2 SLP283 T01281050
KCKB 201853Z 30007G17KT 10SM CLR 12/M05 A3039 RMK AO2 SLP289 T01221050
KCKB 201753Z 30009G14KT 10SM CLR 12/M04 A3039 RMK AO2 SLP290 T01171044 10117 20006 58008
KCKB 201741Z 01008KT 10SM CLR 11/M05 A3039 RMK AO2 T01061050
KCKB 201731Z 34007KT 2SM HZ CLR 11/M05 A3039 RMK AO2 T01111050
KCKB 201653Z VRB05G15KT 10SM CLR 11/M05 A3040 RMK AO2 SLP294 T01061050
KCKB 201553Z 00000KT 10SM CLR 08/M08 A3041 RMK AO2 SLP298 T00831078
KCKB 201453Z 33009KT 10SM CLR 08/M06 A3041 RMK AO2 SLP299 T00781056 51015
KCKB 201353Z 35009KT 10SM CLR 06/M06 A3041 RMK AO2 SLP298 T00561056
KCKB 201253Z 00000KT 10SM CLR 03/M06 A3039 RMK AO2 SLP295 T00331061
KCKB 201153Z 00000KT 10SM CLR 01/M06 A3037 RMK AO2 SLP287 70002 T00061056 10033 21028 51015
KCKB 201053Z AUTO 00000KT 10SM CLR M02/M07 A3035 RMK AO2 SLP284 T10171067
KCKB 200953Z AUTO 19004KT 10SM CLR M01/M07 A3034 RMK AO2 SLP278 T10061067
KCKB 200853Z AUTO 00000KT 10SM CLR 00/M07 A3032 RMK AO2 SLP273 T00001072 53019
KCKB 200753Z AUTO 34003KT 10SM CLR 01/M07 A3031 RMK AO2 SLP266 T00111072
KCKB 200653Z AUTO VRB04KT 10SM CLR 02/M07 A3028 RMK AO2 SLP257 T00171067
KCKB 200553Z AUTO 32005KT 10SM CLR 03/M07 A3026 RMK AO2 SLP251 T00281067 10061 20028 51014